createdAt,value
2017-10-17T00:01:43.399Z,12.60
2017-10-17T00:04:12.091Z,12.80
2017-10-17T00:06:39.884Z,12.80
2017-10-17T00:09:08.425Z,11.77
2017-10-17T00:11:36.565Z,12.80
2017-10-17T00:14:04.331Z,12.47
2017-10-17T00:16:32.119Z,12.33
2017-10-17T00:18:59.886Z,12.43
2017-10-17T00:21:27.678Z,11.40
2017-10-17T00:23:55.457Z,13.03
2017-10-17T00:26:24.015Z,12.70
2017-10-17T00:28:52.595Z,11.70
2017-10-17T00:31:20.388Z,12.40
2017-10-17T00:33:48.183Z,13.07
2017-10-17T00:36:17.578Z,11.83
2017-10-17T00:38:49.076Z,11.77
2017-10-17T00:41:16.841Z,11.80
2017-10-17T00:43:44.631Z,13.57
2017-10-17T00:46:15.343Z,13.30
2017-10-17T00:48:43.139Z,11.90
2017-10-17T00:51:23.244Z,12.50
2017-10-17T00:53:51.200Z,12.87
2017-10-17T00:56:19.722Z,13.17
2017-10-17T00:58:47.487Z,13.00
2017-10-17T01:01:15.271Z,12.70
2017-10-17T01:03:43.170Z,13.57
2017-10-17T01:06:11.020Z,13.70
2017-10-17T01:08:38.795Z,11.87
2017-10-17T01:11:08.078Z,12.80
2017-10-17T01:13:35.967Z,13.20
2017-10-17T01:16:04.533Z,13.67
2017-10-17T01:18:32.436Z,13.07
2017-10-17T01:21:07.791Z,12.50
2017-10-17T01:23:48.967Z,13.30
2017-10-17T01:26:26.250Z,13.37
2017-10-17T01:29:00.634Z,12.90
2017-10-17T01:31:28.418Z,14.67
2017-10-17T01:33:57.811Z,13.40
2017-10-17T01:36:25.591Z,12.77
2017-10-17T01:38:55.095Z,11.97
2017-10-17T01:41:23.631Z,12.10
2017-10-17T01:43:51.404Z,12.97
2017-10-17T01:46:19.987Z,12.53
2017-10-17T01:48:51.303Z,12.03
2017-10-17T01:51:21.812Z,11.90
2017-10-17T01:53:57.888Z,11.30
2017-10-17T01:56:27.344Z,11.60
2017-10-17T01:58:55.140Z,11.23
2017-10-17T02:01:24.699Z,11.77
2017-10-17T02:03:52.471Z,10.80
2017-10-17T02:06:20.247Z,12.17
2017-10-17T02:08:48.024Z,13.23
2017-10-17T02:11:19.227Z,14.17
2017-10-17T02:13:46.988Z,13.70
2017-10-17T02:16:14.826Z,11.97
2017-10-17T02:18:44.386Z,12.83
2017-10-17T02:21:12.895Z,12.00
2017-10-17T02:23:40.838Z,11.87
2017-10-17T02:26:26.162Z,12.80
2017-10-17T02:29:03.496Z,12.10
2017-10-17T02:31:31.075Z,10.20
2017-10-17T02:34:03.315Z,10.30
2017-10-17T02:36:31.226Z,11.97
2017-10-17T02:38:59.017Z,11.50
2017-10-17T02:41:26.804Z,12.57
2017-10-17T02:43:57.478Z,13.03
2017-10-17T02:46:25.247Z,11.83
2017-10-17T03:02:37.140Z,11.87
2017-10-17T03:05:09.510Z,11.53
2017-10-17T03:07:37.324Z,10.93
2017-10-17T03:10:05.096Z,11.13
2017-10-17T03:12:33.651Z,11.40
2017-10-17T03:15:03.137Z,11.27
2017-10-17T03:17:30.906Z,10.83
2017-10-17T03:19:58.696Z,11.13
2017-10-17T03:22:26.628Z,10.90
2017-10-17T03:24:58.287Z,11.63
2017-10-17T03:27:26.056Z,11.13
2017-10-17T03:29:53.856Z,11.07
2017-10-17T03:32:21.627Z,11.00
2017-10-17T03:34:52.128Z,10.73
2017-10-17T03:37:43.472Z,9.87
2017-10-17T03:40:13.819Z,9.87
2017-10-17T03:42:42.371Z,9.77
2017-10-17T03:45:11.775Z,10.43
2017-10-17T03:47:46.047Z,12.30
2017-10-17T03:53:09.819Z,11.70
2017-10-17T03:55:38.442Z,11.57
2017-10-17T03:58:08.939Z,12.47
2017-10-17T04:00:37.500Z,13.10
2017-10-17T04:03:06.176Z,11.53
2017-10-17T04:05:43.073Z,11.10
2017-10-17T04:08:20.583Z,11.77
2017-10-17T04:11:06.851Z,11.63
2017-10-17T04:13:40.235Z,12.60
2017-10-17T04:16:10.750Z,11.07
2017-10-17T04:18:44.346Z,11.83
2017-10-17T04:21:33.823Z,13.60
2017-10-17T04:24:08.248Z,12.17
2017-10-17T04:26:36.179Z,12.00
2017-10-17T04:29:14.079Z,13.70
2017-10-17T04:31:47.336Z,13.40
2017-10-17T04:34:22.853Z,14.57
2017-10-17T04:50:28.723Z,10.67
2017-10-17T04:53:08.274Z,12.00
2017-10-17T04:55:45.244Z,10.70
2017-10-17T04:58:13.211Z,10.80
2017-10-17T05:00:40.982Z,13.00
2017-10-17T05:03:09.580Z,12.90
2017-10-17T05:05:49.947Z,11.90
2017-10-17T05:08:50.232Z,11.20
2017-10-17T05:11:19.707Z,10.10
2017-10-17T05:14:03.459Z,11.13
2017-10-17T05:16:41.724Z,13.30
2017-10-17T05:32:36.464Z,13.80
2017-10-17T05:35:05.142Z,13.17
2017-10-17T05:37:33.499Z,12.63
2017-10-17T05:40:01.099Z,13.67
2017-10-17T05:42:29.626Z,12.93
2017-10-17T05:44:58.183Z,13.30
2017-10-17T05:47:29.851Z,15.13
2017-10-17T05:49:58.316Z,15.90
2017-10-17T05:52:26.103Z,15.40
2017-10-17T05:54:54.564Z,14.27
2017-10-17T05:57:23.042Z,15.00
2017-10-17T05:59:51.504Z,13.90
2017-10-17T06:02:20.771Z,13.00
2017-10-17T06:04:49.230Z,12.30
2017-10-17T06:07:17.819Z,11.93
2017-10-17T06:09:46.393Z,11.97
2017-10-17T06:12:14.852Z,14.23
2017-10-17T06:14:43.349Z,16.20
2017-10-17T06:17:11.811Z,15.73
2017-10-17T06:19:41.068Z,15.40
2017-10-17T06:22:09.527Z,14.63
2017-10-17T06:24:37.887Z,13.87
2017-10-17T06:27:06.377Z,12.93
2017-10-17T06:29:34.855Z,14.60
2017-10-17T06:32:03.319Z,14.40
2017-10-17T06:34:32.592Z,14.60
2017-10-17T06:37:01.061Z,13.60
2017-10-17T06:39:29.563Z,15.47
2017-10-17T06:41:58.040Z,15.33
2017-10-17T06:44:26.507Z,15.50
2017-10-17T06:46:55.119Z,15.00
2017-10-17T06:49:23.583Z,14.33
2017-10-17T06:51:52.072Z,14.80
2017-10-17T06:54:20.547Z,13.73
2017-10-17T06:56:48.686Z,14.60
2017-10-17T06:59:16.924Z,13.50
2017-10-17T07:01:46.152Z,13.90
2017-10-17T07:04:14.623Z,14.07
2017-10-17T07:06:43.848Z,15.30
2017-10-17T07:09:12.414Z,15.27
2017-10-17T07:11:40.881Z,16.60
2017-10-17T07:14:10.139Z,16.43
2017-10-17T07:16:38.611Z,17.07
2017-10-17T07:19:07.134Z,18.50
2017-10-17T07:21:36.388Z,17.43
2017-10-17T07:24:04.868Z,18.20
2017-10-17T07:26:33.340Z,18.00
2017-10-17T07:29:01.835Z,16.43
2017-10-17T07:31:31.203Z,22.23
2017-10-17T07:34:00.431Z,20.03
2017-10-17T07:36:28.923Z,19.17
2017-10-17T07:38:57.387Z,19.90
2017-10-17T07:41:26.016Z,19.60
2017-10-17T07:43:54.483Z,18.83
2017-10-17T07:46:22.971Z,19.70
2017-10-17T07:48:51.424Z,18.80
2017-10-17T07:51:19.995Z,18.80
2017-10-17T07:53:49.368Z,19.17
2017-10-17T07:56:18.603Z,17.90
2017-10-17T07:58:47.076Z,20.33
2017-10-17T08:01:16.435Z,20.07
2017-10-17T08:03:44.924Z,19.57
2017-10-17T08:06:12.688Z,21.13
2017-10-17T08:08:40.821Z,19.53
2017-10-17T08:11:09.361Z,19.20
2017-10-17T08:13:37.492Z,19.60
2017-10-17T08:16:05.981Z,18.57
2017-10-17T08:18:34.471Z,17.87
2017-10-17T08:21:02.959Z,19.00
2017-10-17T08:23:31.511Z,15.60
2017-10-17T08:25:59.983Z,17.07
2017-10-17T08:28:28.443Z,17.07
2017-10-17T08:30:57.726Z,16.20
2017-10-17T08:33:27.240Z,17.10
2017-10-17T08:35:55.534Z,16.30
2017-10-17T08:38:24.296Z,16.60
2017-10-17T08:40:52.810Z,16.97
2017-10-17T08:43:21.517Z,16.40
2017-10-17T08:45:49.810Z,17.40
2017-10-17T08:48:18.277Z,17.70
2017-10-17T08:50:46.795Z,16.90
2017-10-17T08:53:15.144Z,17.00
2017-10-17T08:55:43.430Z,16.27
2017-10-17T08:58:12.015Z,16.67
2017-10-17T09:00:40.491Z,17.53
2017-10-17T09:03:09.083Z,17.20
2017-10-17T09:05:37.547Z,17.37
2017-10-17T09:08:06.023Z,17.10
2017-10-17T09:10:34.491Z,16.80
2017-10-17T09:13:03.735Z,17.87
2017-10-17T09:15:32.203Z,16.87
2017-10-17T09:18:00.685Z,16.87
2017-10-17T09:20:29.161Z,18.23
2017-10-17T09:22:57.634Z,17.03
2017-10-17T09:25:26.875Z,17.53
2017-10-17T09:27:55.468Z,16.57
2017-10-17T09:30:23.965Z,17.80
2017-10-17T09:32:52.427Z,15.10
2017-10-17T09:35:21.299Z,15.50
2017-10-17T09:37:49.760Z,16.30
2017-10-17T09:40:18.229Z,14.83
2017-10-17T09:42:47.475Z,14.57
2017-10-17T09:45:15.619Z,13.90
2017-10-17T09:47:44.115Z,13.33
2017-10-17T09:50:12.575Z,13.17
2017-10-17T09:52:41.940Z,14.90
2017-10-17T09:55:10.408Z,13.80
2017-10-17T09:57:38.884Z,14.20
2017-10-17T10:00:07.346Z,12.77
2017-10-17T10:02:35.973Z,13.10
2017-10-17T10:05:04.259Z,12.57
2017-10-17T10:07:32.607Z,12.83
2017-10-17T10:10:01.075Z,12.67
2017-10-17T10:12:29.366Z,11.50
2017-10-17T10:14:57.823Z,11.10
2017-10-17T10:17:26.104Z,11.50
2017-10-17T10:19:54.395Z,11.70
2017-10-17T10:22:22.708Z,11.33
2017-10-17T10:24:51.187Z,11.80
2017-10-17T10:27:19.651Z,10.93
2017-10-17T10:29:48.124Z,12.10
2017-10-17T10:32:16.580Z,11.30
2017-10-17T10:34:45.077Z,11.53
2017-10-17T10:37:13.561Z,10.40
2017-10-17T10:39:42.042Z,11.87
2017-10-17T10:42:10.315Z,11.70
2017-10-17T10:44:38.787Z,10.93
2017-10-17T10:47:08.020Z,12.00
2017-10-17T10:49:36.511Z,10.70
2017-10-17T10:52:05.008Z,11.27
2017-10-17T10:54:33.479Z,9.33
2017-10-17T10:57:01.944Z,10.20
2017-10-17T10:59:30.423Z,8.97
2017-10-17T11:01:58.919Z,9.73
2017-10-17T11:04:27.211Z,9.17
2017-10-17T11:06:55.521Z,9.80
2017-10-17T11:09:24.811Z,9.30
2017-10-17T11:11:53.296Z,9.33
2017-10-17T11:14:21.815Z,9.27
2017-10-17T11:16:50.286Z,9.47
2017-10-17T11:19:19.353Z,9.60
2017-10-17T11:21:47.624Z,8.70
2017-10-17T11:24:16.120Z,8.13
2017-10-17T11:26:44.656Z,7.83
2017-10-17T11:29:13.184Z,7.97
2017-10-17T11:31:41.655Z,7.20
2017-10-17T11:34:09.926Z,8.10
2017-10-17T11:36:38.403Z,7.13
2017-10-17T11:39:06.667Z,7.77
2017-10-17T11:41:46.231Z,7.07
2017-10-17T11:44:13.800Z,6.47
2017-10-17T11:46:42.108Z,7.63
2017-10-17T11:49:10.824Z,7.43
2017-10-17T11:51:39.283Z,6.80
2017-10-17T11:54:07.483Z,6.50
2017-10-17T11:56:35.947Z,7.20
2017-10-17T11:59:04.419Z,7.20
2017-10-17T12:01:33.642Z,6.67
2017-10-17T12:04:02.136Z,8.00
2017-10-17T12:06:30.408Z,7.13
2017-10-17T12:08:58.869Z,6.87
2017-10-17T12:11:27.007Z,7.17
2017-10-17T12:13:54.824Z,7.00
2017-10-17T12:16:22.609Z,6.60
2017-10-17T12:18:51.200Z,7.07
2017-10-17T12:21:19.744Z,6.53
2017-10-17T12:23:48.200Z,6.40
2017-10-17T12:26:16.688Z,6.40
2017-10-17T12:28:45.922Z,6.63
2017-10-17T12:31:14.396Z,7.07
2017-10-17T12:33:42.862Z,6.67
2017-10-17T12:36:12.081Z,5.73
2017-10-17T12:38:40.567Z,6.20
2017-10-17T12:41:09.036Z,6.00
2017-10-17T12:43:37.529Z,6.50
2017-10-17T12:46:05.795Z,6.50
2017-10-17T12:48:34.527Z,6.47
2017-10-17T12:51:02.995Z,6.50
2017-10-17T12:53:31.431Z,6.47
2017-10-17T12:56:00.654Z,6.80
2017-10-17T12:58:28.944Z,6.50
2017-10-17T13:00:57.415Z,6.77
2017-10-17T13:03:25.872Z,6.00
2017-10-17T13:05:55.163Z,6.40
2017-10-17T13:08:23.630Z,6.83
2017-10-17T13:10:52.203Z,7.17
2017-10-17T13:13:20.665Z,7.30
2017-10-17T13:15:48.319Z,7.43
2017-10-17T13:18:16.086Z,7.50
2017-10-17T13:20:44.543Z,6.70
2017-10-17T13:23:13.869Z,6.07
2017-10-17T13:25:42.382Z,6.50
2017-10-17T13:28:10.160Z,7.23
2017-10-17T13:30:38.612Z,7.20
2017-10-17T13:33:07.096Z,6.10
2017-10-17T13:35:35.576Z,5.90
2017-10-17T13:38:04.038Z,7.87
2017-10-17T13:40:32.544Z,6.33
2017-10-17T13:43:01.000Z,5.77
2017-10-17T13:45:29.503Z,6.30
2017-10-17T13:47:57.966Z,6.63
2017-10-17T13:50:26.474Z,6.50
2017-10-17T13:52:54.933Z,6.00
2017-10-17T13:55:23.436Z,6.63
2017-10-17T13:57:51.905Z,6.93
2017-10-17T14:00:20.396Z,6.33
2017-10-17T14:02:48.871Z,6.50
2017-10-17T14:05:17.417Z,6.47
2017-10-17T14:07:46.679Z,5.23
2017-10-17T14:10:14.856Z,8.50
2017-10-17T14:12:43.556Z,6.90
2017-10-17T14:15:11.704Z,7.07
2017-10-17T14:17:40.164Z,6.40
2017-10-17T14:20:08.672Z,7.80
2017-10-17T14:22:37.180Z,9.20
2017-10-17T14:25:05.667Z,8.20
2017-10-17T14:27:34.159Z,8.03
2017-10-17T14:30:02.701Z,8.90
2017-10-17T14:32:31.188Z,8.20
2017-10-17T14:34:59.667Z,8.97
2017-10-17T14:37:27.840Z,8.60
2017-10-17T14:39:56.297Z,8.87
2017-10-17T14:42:24.783Z,9.27
2017-10-17T14:44:53.073Z,9.23
2017-10-17T14:47:21.643Z,8.53
2017-10-17T14:49:50.148Z,9.40
2017-10-17T14:52:18.626Z,8.03
2017-10-17T14:54:47.210Z,8.60
2017-10-17T14:57:15.680Z,9.10
2017-10-17T14:59:44.172Z,8.80
2017-10-17T15:02:12.672Z,8.57
2017-10-17T15:04:41.151Z,9.00
2017-10-17T15:07:09.858Z,8.43
2017-10-17T15:09:39.091Z,9.40
2017-10-17T15:12:07.955Z,9.00
2017-10-17T15:14:37.192Z,8.20
2017-10-17T15:17:06.104Z,8.60
2017-10-17T15:19:34.963Z,8.50
2017-10-17T15:22:04.199Z,8.37
2017-10-17T15:24:33.070Z,7.90
2017-10-17T15:27:02.025Z,8.97
2017-10-17T15:29:30.365Z,9.23
2017-10-17T15:31:59.218Z,8.20
2017-10-17T15:34:28.104Z,7.93
2017-10-17T15:36:56.584Z,8.97
2017-10-17T15:39:25.086Z,8.40
2017-10-17T15:41:53.803Z,9.00
2017-10-17T15:44:22.285Z,8.80
2017-10-17T15:46:50.767Z,9.10
2017-10-17T15:49:19.251Z,8.93
2017-10-17T15:51:48.504Z,9.20
2017-10-17T15:54:18.501Z,9.40
2017-10-17T15:56:46.999Z,8.50
2017-10-17T15:59:15.489Z,9.03
2017-10-17T16:01:43.955Z,10.17
2017-10-17T16:04:12.460Z,9.40
2017-10-17T16:06:41.827Z,8.40
2017-10-17T16:09:10.316Z,9.23
2017-10-17T16:11:38.774Z,9.13
2017-10-17T16:14:07.244Z,9.30
2017-10-17T16:16:36.151Z,12.33
2017-10-17T16:19:04.640Z,10.93
2017-10-17T16:21:33.083Z,9.90
2017-10-17T16:24:02.513Z,10.40
2017-10-17T16:26:31.772Z,9.63
2017-10-17T16:29:00.051Z,9.30
2017-10-17T16:31:29.302Z,9.50
2017-10-17T16:33:58.612Z,9.07
2017-10-17T16:36:27.103Z,9.40
2017-10-17T16:38:55.585Z,9.93
2017-10-17T16:41:24.123Z,9.80
2017-10-17T16:43:52.608Z,11.50
2017-10-17T16:46:21.079Z,11.83
2017-10-17T16:48:50.337Z,9.27
2017-10-17T16:51:18.640Z,10.77
2017-10-17T16:53:47.687Z,10.27
2017-10-17T16:56:16.161Z,10.37
2017-10-17T16:58:44.664Z,10.33
2017-10-17T17:01:13.144Z,11.10
2017-10-17T17:03:41.647Z,17.20
2017-10-17T17:06:10.123Z,12.13
2017-10-17T17:08:38.739Z,10.83
2017-10-17T17:11:08.008Z,10.87
2017-10-17T17:13:36.491Z,10.80
2017-10-17T17:16:04.956Z,10.83
2017-10-17T17:18:33.443Z,10.83
2017-10-17T17:21:01.924Z,9.70
2017-10-17T17:23:30.399Z,10.10
2017-10-17T17:25:58.893Z,9.83
2017-10-17T17:28:27.364Z,10.30
2017-10-17T17:30:55.849Z,9.70
2017-10-17T17:33:24.397Z,10.93
2017-10-17T17:35:53.736Z,11.10
2017-10-17T17:38:22.211Z,10.37
2017-10-17T17:40:50.695Z,10.50
2017-10-17T17:43:19.595Z,9.77
2017-10-17T17:45:48.501Z,10.70
2017-10-17T17:48:17.017Z,10.43
2017-10-17T17:50:45.562Z,11.23
2017-10-17T17:53:14.060Z,10.73
2017-10-17T17:55:42.923Z,10.83
2017-10-17T17:58:11.415Z,11.37
2017-10-17T18:00:39.201Z,11.67
2017-10-17T18:03:07.335Z,10.37
2017-10-17T18:05:35.925Z,11.27
2017-10-17T18:08:04.532Z,11.20
2017-10-17T18:10:32.995Z,11.50
2017-10-17T18:13:01.477Z,11.53
2017-10-17T18:15:30.726Z,11.40
2017-10-17T18:17:59.267Z,11.73
2017-10-17T18:20:27.560Z,11.50
2017-10-17T18:22:56.036Z,12.67
2017-10-17T18:25:24.612Z,12.70
2017-10-17T18:27:53.130Z,11.90
2017-10-17T18:30:21.622Z,12.40
2017-10-17T18:32:50.092Z,12.17
2017-10-17T18:35:18.590Z,12.50
2017-10-17T18:37:47.079Z,12.43
2017-10-17T18:40:16.336Z,12.73
2017-10-17T18:42:44.864Z,12.27
2017-10-17T18:45:13.365Z,12.13
2017-10-17T18:47:42.627Z,11.60
2017-10-17T18:50:11.120Z,13.40
2017-10-17T18:52:39.655Z,11.07
2017-10-17T18:55:08.129Z,13.10
2017-10-17T18:57:36.430Z,12.67
2017-10-17T19:00:04.582Z,11.70
2017-10-17T19:02:32.891Z,12.00
2017-10-17T19:05:01.355Z,12.90
2017-10-17T19:07:29.860Z,13.67
2017-10-17T19:09:58.503Z,13.03
2017-10-17T19:12:27.115Z,13.30
2017-10-17T19:14:55.608Z,11.13
2017-10-17T19:17:24.143Z,12.17
2017-10-17T19:19:53.415Z,13.13
2017-10-17T19:22:21.927Z,12.20
2017-10-17T19:24:51.185Z,12.67
2017-10-17T19:27:19.670Z,13.63
2017-10-17T19:29:47.988Z,11.60
2017-10-17T19:32:17.098Z,13.43
2017-10-17T19:34:45.501Z,13.60
2017-10-17T19:37:14.089Z,12.53
2017-10-17T19:39:43.436Z,13.00
2017-10-17T19:42:11.753Z,13.20
2017-10-17T19:44:40.048Z,12.83
2017-10-17T19:47:08.537Z,12.40
2017-10-17T19:49:37.085Z,13.37
2017-10-17T19:52:05.587Z,13.00
2017-10-17T19:54:34.086Z,12.87
2017-10-17T19:57:02.608Z,13.30
2017-10-17T19:59:31.103Z,16.00
2017-10-17T20:02:00.450Z,15.83
2017-10-17T20:04:29.167Z,15.57
2017-10-17T20:06:57.689Z,14.70
2017-10-17T20:09:26.954Z,14.20
2017-10-17T20:11:55.521Z,14.30
2017-10-17T20:14:24.031Z,14.37
2017-10-17T20:16:52.192Z,14.10
2017-10-17T20:19:20.705Z,14.07
2017-10-17T20:21:49.614Z,13.20
2017-10-17T20:24:18.092Z,12.90
2017-10-17T20:26:46.588Z,13.60
2017-10-17T20:29:15.084Z,13.40
2017-10-17T20:31:43.567Z,15.23
2017-10-17T20:34:11.704Z,14.90
2017-10-17T20:36:40.942Z,12.20
2017-10-17T20:39:09.445Z,13.50
2017-10-17T20:41:38.516Z,13.97
2017-10-17T20:44:07.004Z,14.63
2017-10-17T20:46:35.474Z,14.97
2017-10-17T20:49:03.957Z,13.53
2017-10-17T20:51:32.446Z,14.60
2017-10-17T20:54:00.913Z,13.20
2017-10-17T20:56:29.384Z,12.60
2017-10-17T20:58:58.645Z,14.43
2017-10-17T21:01:27.143Z,12.60
2017-10-17T21:03:57.116Z,12.50
2017-10-17T21:06:25.601Z,11.60
2017-10-17T21:08:54.070Z,12.37
2017-10-17T21:11:22.720Z,13.50
2017-10-17T21:13:51.953Z,11.73
2017-10-17T21:16:20.538Z,13.07
2017-10-17T21:18:49.045Z,13.60
2017-10-17T21:21:17.519Z,12.77
2017-10-17T21:23:46.006Z,12.77
2017-10-17T21:26:14.512Z,13.23
2017-10-17T21:28:43.000Z,13.03
2017-10-17T21:31:12.267Z,12.90
2017-10-17T21:33:40.601Z,12.53
2017-10-17T21:36:09.925Z,13.90
2017-10-17T21:38:38.223Z,13.50
2017-10-17T21:41:06.496Z,13.30
2017-10-17T21:43:34.803Z,12.60
2017-10-17T21:46:03.092Z,13.33
2017-10-17T21:48:31.584Z,13.87
2017-10-17T21:51:01.652Z,12.60
2017-10-17T21:53:30.134Z,12.73
2017-10-17T21:55:58.613Z,12.07
2017-10-17T21:58:27.101Z,12.97
2017-10-17T22:01:01.835Z,14.80
2017-10-17T22:03:30.363Z,13.50
2017-10-17T22:05:58.827Z,14.07
2017-10-17T22:08:27.331Z,13.77
2017-10-17T22:10:55.819Z,14.43
2017-10-17T22:13:24.283Z,14.17
2017-10-17T22:15:52.774Z,14.40
2017-10-17T22:18:21.348Z,14.10
2017-10-17T22:20:49.812Z,12.30
2017-10-17T22:23:18.300Z,14.60
2017-10-17T22:25:46.767Z,13.13
2017-10-17T22:28:16.383Z,14.73
2017-10-17T22:30:45.997Z,14.20
2017-10-17T22:33:14.503Z,14.70
2017-10-17T22:35:44.543Z,15.40
2017-10-17T22:38:13.788Z,15.27
2017-10-17T22:40:42.268Z,14.57
2017-10-17T22:43:10.762Z,16.60
2017-10-17T22:45:39.253Z,15.30
2017-10-17T22:48:07.739Z,15.10
2017-10-17T22:50:36.195Z,14.93
2017-10-17T22:53:04.683Z,14.80
2017-10-17T22:55:33.169Z,14.40
2017-10-17T22:58:01.652Z,15.63
2017-10-17T23:00:30.144Z,16.87
2017-10-17T23:02:58.628Z,14.63
2017-10-17T23:05:27.091Z,14.60
2017-10-17T23:07:55.571Z,13.37
2017-10-17T23:10:24.159Z,13.63
2017-10-17T23:12:52.727Z,14.70
2017-10-17T23:15:21.218Z,13.27
2017-10-17T23:18:01.082Z,12.97
2017-10-17T23:20:35.752Z,13.73
2017-10-17T23:23:04.995Z,12.70
2017-10-17T23:25:33.479Z,12.90
2017-10-17T23:28:01.943Z,13.17
2017-10-17T23:30:31.175Z,13.47
2017-10-17T23:32:59.643Z,13.37
2017-10-17T23:35:28.124Z,14.43
2017-10-17T23:37:56.583Z,14.67
2017-10-17T23:40:25.823Z,12.10
2017-10-17T23:42:54.142Z,13.10
2017-10-17T23:45:23.534Z,13.57
2017-10-17T23:47:52.002Z,15.47
2017-10-17T23:50:20.661Z,13.70
2017-10-17T23:52:49.443Z,16.13
2017-10-17T23:55:17.900Z,15.93
2017-10-17T23:57:47.336Z,15.23
